sensor_id;sensor_type;location;lat;lon;timestamp;P1;durP1;ratioP1;P2;durP2;ratioP2
9799;SDS011;4939;52.00085300;4.17406100;2024-03-22T00:00:33;46.60;;;12.45;;
9799;SDS011;4939;52.00085300;4.17406100;2024-03-22T00:02:59;47.65;;;13.27;;
9799;SDS011;4939;52.00085300;4.17406100;2024-03-22T00:05:25;51.30;;;12.85;;
9799;SDS011;4939;52.00085300;4.17406100;2024-03-22T00:07:52;50.17;;;12.35;;
9799;SDS011;4939;52.00085300;4.17406100;2024-03-22T00:10:17;56.08;;;13.43;;
9799;SDS011;4939;52.00085300;4.17406100;2024-03-22T00:12:43;54.83;;;12.98;;
9799;SDS011;4939;52.00085300;4.17406100;2024-03-22T00:15:09;45.17;;;12.82;;
9799;SDS011;4939;52.00085300;4.17406100;2024-03-22T00:17:36;37.42;;;10.32;;
9799;SDS011;4939;52.00085300;4.17406100;2024-03-22T00:20:02;39.13;;;10.57;;
9799;SDS011;4939;52.00085300;4.17406100;2024-03-22T00:22:28;48.28;;;12.88;;
9799;SDS011;4939;52.00085300;4.17406100;2024-03-22T00:24:54;45.35;;;12.45;;
9799;SDS011;4939;52.00085300;4.17406100;2024-03-22T00:27:21;42.55;;;11.52;;
9799;SDS011;4939;52.00085300;4.17406100;2024-03-22T00:29:48;54.03;;;13.18;;
9799;SDS011;4939;52.00085300;4.17406100;2024-03-22T00:32:14;59.40;;;14.90;;
9799;SDS011;4939;52.00085300;4.17406100;2024-03-22T00:34:40;52.00;;;13.88;;
9799;SDS011;4939;52.00085300;4.17406100;2024-03-22T00:37:07;52.47;;;13.55;;
9799;SDS011;4939;52.00085300;4.17406100;2024-03-22T00:39:33;53.38;;;13.88;;
9799;SDS011;4939;52.00085300;4.17406100;2024-03-22T00:41:59;52.65;;;12.15;;
9799;SDS011;4939;52.00085300;4.17406100;2024-03-22T00:44:25;48.67;;;12.13;;
9799;SDS011;4939;52.00085300;4.17406100;2024-03-22T00:46:51;31.02;;;9.60;;
9799;SDS011;4939;52.00085300;4.17406100;2024-03-22T00:49:17;33.47;;;9.73;;
9799;SDS011;4939;52.00085300;4.17406100;2024-03-22T00:51:44;23.63;;;6.82;;
9799;SDS011;4939;52.00085300;4.17406100;2024-03-22T00:54:11;25.05;;;7.43;;
9799;SDS011;4939;52.00085300;4.17406100;2024-03-22T00:56:37;18.10;;;5.95;;
9799;SDS011;4939;52.00085300;4.17406100;2024-03-22T00:59:03;23.58;;;7.57;;
9799;SDS011;4939;52.00085300;4.17406100;2024-03-22T01:01:29;20.10;;;7.43;;
9799;SDS011;4939;52.00085300;4.17406100;2024-03-22T01:03:55;16.88;;;6.65;;
9799;SDS011;4939;52.00085300;4.17406100;2024-03-22T01:06:21;15.20;;;5.57;;
9799;SDS011;4939;52.00085300;4.17406100;2024-03-22T01:08:50;16.95;;;6.35;;
9799;SDS011;4939;52.00085300;4.17406100;2024-03-22T01:11:17;20.80;;;7.22;;
9799;SDS011;4939;52.00085300;4.17406100;2024-03-22T01:13:43;16.38;;;5.85;;
9799;SDS011;4939;52.00085300;4.17406100;2024-03-22T01:16:09;12.02;;;5.07;;
9799;SDS011;4939;52.00085300;4.17406100;2024-03-22T01:18:36;16.60;;;6.32;;
9799;SDS011;4939;52.00085300;4.17406100;2024-03-22T01:21:02;16.55;;;6.95;;
9799;SDS011;4939;52.00085300;4.17406100;2024-03-22T01:23:28;21.33;;;6.95;;
9799;SDS011;4939;52.00085300;4.17406100;2024-03-22T01:25:54;24.45;;;7.32;;
9799;SDS011;4939;52.00085300;4.17406100;2024-03-22T01:28:21;22.33;;;7.07;;
9799;SDS011;4939;52.00085300;4.17406100;2024-03-22T01:30:47;27.60;;;7.70;;
9799;SDS011;4939;52.00085300;4.17406100;2024-03-22T01:33:13;23.55;;;7.18;;
9799;SDS011;4939;52.00085300;4.17406100;2024-03-22T01:35:39;21.08;;;6.32;;
9799;SDS011;4939;52.00085300;4.17406100;2024-03-22T01:38:05;14.55;;;4.97;;
9799;SDS011;4939;52.00085300;4.17406100;2024-03-22T01:40:31;15.07;;;5.47;;
9799;SDS011;4939;52.00085300;4.17406100;2024-03-22T01:42:58;18.88;;;6.60;;
9799;SDS011;4939;52.00085300;4.17406100;2024-03-22T01:45:25;17.70;;;4.90;;
9799;SDS011;4939;52.00085300;4.17406100;2024-03-22T01:47:54;19.98;;;6.57;;
9799;SDS011;4939;52.00085300;4.17406100;2024-03-22T01:50:21;21.63;;;6.05;;
9799;SDS011;4939;52.00085300;4.17406100;2024-03-22T01:52:47;25.85;;;6.78;;
9799;SDS011;4939;52.00085300;4.17406100;2024-03-22T01:55:13;27.75;;;7.00;;
9799;SDS011;4939;52.00085300;4.17406100;2024-03-22T01:57:39;18.10;;;6.75;;
9799;SDS011;4939;52.00085300;4.17406100;2024-03-22T02:00:06;21.70;;;7.15;;
9799;SDS011;4939;52.00085300;4.17406100;2024-03-22T02:02:35;26.35;;;6.72;;
9799;SDS011;4939;52.00085300;4.17406100;2024-03-22T02:05:11;21.95;;;6.25;;
9799;SDS011;4939;52.00085300;4.17406100;2024-03-22T02:07:37;19.48;;;5.93;;
9799;SDS011;4939;52.00085300;4.17406100;2024-03-22T02:10:04;13.30;;;5.13;;
9799;SDS011;4939;52.00085300;4.17406100;2024-03-22T02:12:30;18.70;;;5.28;;
9799;SDS011;4939;52.00085300;4.17406100;2024-03-22T02:15:00;16.90;;;6.30;;
9799;SDS011;4939;52.00085300;4.17406100;2024-03-22T02:17:27;19.70;;;5.45;;
9799;SDS011;4939;52.00085300;4.17406100;2024-03-22T02:19:53;17.33;;;5.03;;
9799;SDS011;4939;52.00085300;4.17406100;2024-03-22T02:22:19;16.85;;;5.20;;
9799;SDS011;4939;52.00085300;4.17406100;2024-03-22T02:24:45;19.63;;;6.03;;
9799;SDS011;4939;52.00085300;4.17406100;2024-03-22T02:27:11;21.42;;;6.25;;
9799;SDS011;4939;52.00085300;4.17406100;2024-03-22T02:29:37;19.88;;;5.57;;
9799;SDS011;4939;52.00085300;4.17406100;2024-03-22T02:32:03;18.85;;;5.68;;
9799;SDS011;4939;52.00085300;4.17406100;2024-03-22T02:34:31;23.38;;;6.00;;
9799;SDS011;4939;52.00085300;4.17406100;2024-03-22T02:36:57;19.85;;;6.45;;
9799;SDS011;4939;52.00085300;4.17406100;2024-03-22T02:39:23;21.45;;;6.13;;
9799;SDS011;4939;52.00085300;4.17406100;2024-03-22T02:41:50;14.27;;;5.03;;
9799;SDS011;4939;52.00085300;4.17406100;2024-03-22T02:44:17;17.55;;;6.07;;
9799;SDS011;4939;52.00085300;4.17406100;2024-03-22T02:46:43;19.17;;;4.75;;
9799;SDS011;4939;52.00085300;4.17406100;2024-03-22T02:49:09;18.38;;;5.22;;
9799;SDS011;4939;52.00085300;4.17406100;2024-03-22T02:51:35;21.55;;;6.20;;
9799;SDS011;4939;52.00085300;4.17406100;2024-03-22T02:54:01;17.58;;;5.38;;
9799;SDS011;4939;52.00085300;4.17406100;2024-03-22T02:56:27;22.45;;;6.80;;
9799;SDS011;4939;52.00085300;4.17406100;2024-03-22T02:58:53;16.77;;;4.80;;
9799;SDS011;4939;52.00085300;4.17406100;2024-03-22T03:01:20;17.55;;;5.15;;
9799;SDS011;4939;52.00085300;4.17406100;2024-03-22T03:03:46;21.73;;;5.57;;
9799;SDS011;4939;52.00085300;4.17406100;2024-03-22T03:06:12;19.80;;;5.32;;
9799;SDS011;4939;52.00085300;4.17406100;2024-03-22T03:08:39;16.30;;;5.03;;
9799;SDS011;4939;52.00085300;4.17406100;2024-03-22T03:11:05;20.13;;;5.72;;
9799;SDS011;4939;52.00085300;4.17406100;2024-03-22T03:13:31;20.13;;;4.95;;
9799;SDS011;4939;52.00085300;4.17406100;2024-03-22T03:15:57;25.02;;;5.30;;
9799;SDS011;4939;52.00085300;4.17406100;2024-03-22T03:18:23;24.35;;;5.05;;
9799;SDS011;4939;52.00085300;4.17406100;2024-03-22T03:20:50;19.48;;;5.00;;
9799;SDS011;4939;52.00085300;4.17406100;2024-03-22T03:23:16;14.77;;;4.97;;
9799;SDS011;4939;52.00085300;4.17406100;2024-03-22T03:25:43;19.80;;;4.53;;
9799;SDS011;4939;52.00085300;4.17406100;2024-03-22T03:28:10;16.70;;;4.13;;
9799;SDS011;4939;52.00085300;4.17406100;2024-03-22T03:30:39;14.98;;;3.90;;
9799;SDS011;4939;52.00085300;4.17406100;2024-03-22T03:33:05;18.77;;;4.47;;
9799;SDS011;4939;52.00085300;4.17406100;2024-03-22T03:35:32;16.00;;;4.00;;
9799;SDS011;4939;52.00085300;4.17406100;2024-03-22T03:37:58;20.58;;;5.35;;
9799;SDS011;4939;52.00085300;4.17406100;2024-03-22T03:40:25;25.00;;;5.40;;
9799;SDS011;4939;52.00085300;4.17406100;2024-03-22T03:42:53;12.90;;;3.55;;
9799;SDS011;4939;52.00085300;4.17406100;2024-03-22T03:45:19;22.10;;;5.50;;
9799;SDS011;4939;52.00085300;4.17406100;2024-03-22T03:47:46;17.77;;;5.40;;
9799;SDS011;4939;52.00085300;4.17406100;2024-03-22T03:50:13;25.60;;;4.78;;
9799;SDS011;4939;52.00085300;4.17406100;2024-03-22T03:52:39;26.60;;;5.57;;
9799;SDS011;4939;52.00085300;4.17406100;2024-03-22T03:55:05;26.10;;;5.38;;
9799;SDS011;4939;52.00085300;4.17406100;2024-03-22T03:57:33;18.38;;;5.15;;
9799;SDS011;4939;52.00085300;4.17406100;2024-03-22T03:59:59;23.05;;;5.78;;
9799;SDS011;4939;52.00085300;4.17406100;2024-03-22T04:02:26;17.20;;;5.22;;
9799;SDS011;4939;52.00085300;4.17406100;2024-03-22T04:04:52;23.23;;;6.22;;
9799;SDS011;4939;52.00085300;4.17406100;2024-03-22T04:07:20;21.02;;;5.72;;
9799;SDS011;4939;52.00085300;4.17406100;2024-03-22T04:09:46;22.70;;;5.55;;
9799;SDS011;4939;52.00085300;4.17406100;2024-03-22T04:12:12;22.55;;;5.72;;
9799;SDS011;4939;52.00085300;4.17406100;2024-03-22T04:14:39;22.38;;;6.07;;
9799;SDS011;4939;52.00085300;4.17406100;2024-03-22T04:17:09;20.45;;;5.28;;
9799;SDS011;4939;52.00085300;4.17406100;2024-03-22T04:19:40;16.40;;;5.55;;
9799;SDS011;4939;52.00085300;4.17406100;2024-03-22T04:22:07;17.92;;;5.47;;
9799;SDS011;4939;52.00085300;4.17406100;2024-03-22T04:24:33;21.35;;;4.72;;
9799;SDS011;4939;52.00085300;4.17406100;2024-03-22T04:27:00;26.73;;;6.18;;
9799;SDS011;4939;52.00085300;4.17406100;2024-03-22T04:29:28;34.50;;;6.57;;
9799;SDS011;4939;52.00085300;4.17406100;2024-03-22T04:31:55;26.13;;;6.50;;
9799;SDS011;4939;52.00085300;4.17406100;2024-03-22T04:34:21;26.10;;;6.40;;
9799;SDS011;4939;52.00085300;4.17406100;2024-03-22T04:36:47;20.90;;;5.78;;
9799;SDS011;4939;52.00085300;4.17406100;2024-03-22T04:39:14;21.75;;;5.80;;
9799;SDS011;4939;52.00085300;4.17406100;2024-03-22T04:41:41;14.60;;;4.85;;
9799;SDS011;4939;52.00085300;4.17406100;2024-03-22T04:44:08;26.70;;;6.63;;
9799;SDS011;4939;52.00085300;4.17406100;2024-03-22T04:46:35;25.55;;;5.03;;
9799;SDS011;4939;52.00085300;4.17406100;2024-03-22T04:49:01;19.80;;;5.70;;
9799;SDS011;4939;52.00085300;4.17406100;2024-03-22T04:51:27;24.48;;;6.20;;
9799;SDS011;4939;52.00085300;4.17406100;2024-03-22T04:53:54;21.30;;;5.40;;
9799;SDS011;4939;52.00085300;4.17406100;2024-03-22T04:56:20;25.60;;;5.43;;
9799;SDS011;4939;52.00085300;4.17406100;2024-03-22T04:58:47;23.98;;;5.55;;
9799;SDS011;4939;52.00085300;4.17406100;2024-03-22T05:01:14;20.25;;;5.45;;
9799;SDS011;4939;52.00085300;4.17406100;2024-03-22T05:03:40;14.55;;;4.35;;
9799;SDS011;4939;52.00085300;4.17406100;2024-03-22T05:06:06;20.73;;;5.28;;
9799;SDS011;4939;52.00085300;4.17406100;2024-03-22T05:08:33;18.90;;;4.68;;
9799;SDS011;4939;52.00085300;4.17406100;2024-03-22T05:11:00;19.60;;;4.47;;
9799;SDS011;4939;52.00085300;4.17406100;2024-03-22T05:13:26;17.15;;;4.97;;
9799;SDS011;4939;52.00085300;4.17406100;2024-03-22T05:15:53;19.73;;;4.95;;
9799;SDS011;4939;52.00085300;4.17406100;2024-03-22T05:18:19;20.45;;;5.05;;
9799;SDS011;4939;52.00085300;4.17406100;2024-03-22T05:20:46;15.63;;;4.60;;
9799;SDS011;4939;52.00085300;4.17406100;2024-03-22T05:23:13;27.67;;;6.53;;
9799;SDS011;4939;52.00085300;4.17406100;2024-03-22T05:25:42;20.77;;;5.60;;
9799;SDS011;4939;52.00085300;4.17406100;2024-03-22T05:28:09;19.58;;;6.30;;
9799;SDS011;4939;52.00085300;4.17406100;2024-03-22T05:30:35;19.23;;;5.38;;
9799;SDS011;4939;52.00085300;4.17406100;2024-03-22T05:33:02;12.32;;;4.18;;
9799;SDS011;4939;52.00085300;4.17406100;2024-03-22T05:35:29;20.42;;;5.45;;
9799;SDS011;4939;52.00085300;4.17406100;2024-03-22T05:37:55;19.75;;;5.10;;
9799;SDS011;4939;52.00085300;4.17406100;2024-03-22T05:40:22;26.80;;;5.57;;
9799;SDS011;4939;52.00085300;4.17406100;2024-03-22T05:42:49;18.83;;;5.60;;
9799;SDS011;4939;52.00085300;4.17406100;2024-03-22T05:45:16;27.20;;;5.60;;
9799;SDS011;4939;52.00085300;4.17406100;2024-03-22T05:47:44;15.02;;;3.72;;
9799;SDS011;4939;52.00085300;4.17406100;2024-03-22T05:50:11;23.88;;;5.57;;
9799;SDS011;4939;52.00085300;4.17406100;2024-03-22T05:52:39;23.60;;;4.70;;
9799;SDS011;4939;52.00085300;4.17406100;2024-03-22T05:55:06;14.88;;;4.10;;
9799;SDS011;4939;52.00085300;4.17406100;2024-03-22T05:57:32;15.48;;;4.65;;
9799;SDS011;4939;52.00085300;4.17406100;2024-03-22T05:59:58;13.05;;;3.83;;
9799;SDS011;4939;52.00085300;4.17406100;2024-03-22T06:02:24;18.30;;;4.68;;
9799;SDS011;4939;52.00085300;4.17406100;2024-03-22T06:04:51;14.85;;;4.82;;
9799;SDS011;4939;52.00085300;4.17406100;2024-03-22T06:07:18;14.50;;;4.75;;
9799;SDS011;4939;52.00085300;4.17406100;2024-03-22T06:09:45;18.08;;;4.95;;
9799;SDS011;4939;52.00085300;4.17406100;2024-03-22T06:12:12;19.70;;;4.05;;
9799;SDS011;4939;52.00085300;4.17406100;2024-03-22T06:14:41;25.88;;;4.88;;
9799;SDS011;4939;52.00085300;4.17406100;2024-03-22T06:17:14;18.20;;;4.13;;
9799;SDS011;4939;52.00085300;4.17406100;2024-03-22T06:19:41;27.60;;;5.45;;
9799;SDS011;4939;52.00085300;4.17406100;2024-03-22T06:22:07;13.98;;;4.65;;
9799;SDS011;4939;52.00085300;4.17406100;2024-03-22T06:24:34;11.73;;;3.42;;
9799;SDS011;4939;52.00085300;4.17406100;2024-03-22T06:27:01;23.98;;;4.20;;
9799;SDS011;4939;52.00085300;4.17406100;2024-03-22T06:29:29;14.82;;;3.63;;
9799;SDS011;4939;52.00085300;4.17406100;2024-03-22T06:31:55;20.17;;;3.67;;
9799;SDS011;4939;52.00085300;4.17406100;2024-03-22T06:34:22;12.20;;;3.47;;
9799;SDS011;4939;52.00085300;4.17406100;2024-03-22T06:36:48;12.52;;;4.00;;
9799;SDS011;4939;52.00085300;4.17406100;2024-03-22T06:39:15;12.93;;;3.70;;
9799;SDS011;4939;52.00085300;4.17406100;2024-03-22T06:41:42;20.50;;;5.25;;
9799;SDS011;4939;52.00085300;4.17406100;2024-03-22T06:44:08;11.95;;;3.40;;
9799;SDS011;4939;52.00085300;4.17406100;2024-03-22T06:46:37;23.63;;;4.30;;
9799;SDS011;4939;52.00085300;4.17406100;2024-03-22T06:49:03;18.92;;;4.38;;
9799;SDS011;4939;52.00085300;4.17406100;2024-03-22T06:51:29;11.20;;;3.50;;
9799;SDS011;4939;52.00085300;4.17406100;2024-03-22T06:53:55;12.43;;;3.10;;
9799;SDS011;4939;52.00085300;4.17406100;2024-03-22T06:56:21;15.95;;;3.40;;
9799;SDS011;4939;52.00085300;4.17406100;2024-03-22T06:58:48;9.93;;;3.30;;
9799;SDS011;4939;52.00085300;4.17406100;2024-03-22T07:01:14;16.33;;;3.85;;
9799;SDS011;4939;52.00085300;4.17406100;2024-03-22T07:03:41;16.13;;;4.03;;
9799;SDS011;4939;52.00085300;4.17406100;2024-03-22T07:06:10;15.18;;;3.45;;
9799;SDS011;4939;52.00085300;4.17406100;2024-03-22T07:08:37;16.33;;;3.65;;
9799;SDS011;4939;52.00085300;4.17406100;2024-03-22T07:11:06;16.23;;;3.40;;
9799;SDS011;4939;52.00085300;4.17406100;2024-03-22T07:13:32;17.33;;;3.90;;
9799;SDS011;4939;52.00085300;4.17406100;2024-03-22T07:15:58;10.55;;;2.67;;
9799;SDS011;4939;52.00085300;4.17406100;2024-03-22T07:18:24;15.50;;;3.08;;
9799;SDS011;4939;52.00085300;4.17406100;2024-03-22T07:20:51;12.82;;;3.65;;
9799;SDS011;4939;52.00085300;4.17406100;2024-03-22T07:23:17;9.27;;;2.85;;
9799;SDS011;4939;52.00085300;4.17406100;2024-03-22T07:25:43;15.38;;;3.47;;
9799;SDS011;4939;52.00085300;4.17406100;2024-03-22T07:28:11;16.80;;;3.70;;
9799;SDS011;4939;52.00085300;4.17406100;2024-03-22T07:30:37;14.57;;;3.65;;
9799;SDS011;4939;52.00085300;4.17406100;2024-03-22T07:33:03;14.43;;;3.47;;
9799;SDS011;4939;52.00085300;4.17406100;2024-03-22T07:35:30;18.40;;;3.35;;
9799;SDS011;4939;52.00085300;4.17406100;2024-03-22T07:37:56;19.13;;;3.60;;
9799;SDS011;4939;52.00085300;4.17406100;2024-03-22T07:40:22;16.17;;;4.60;;
9799;SDS011;4939;52.00085300;4.17406100;2024-03-22T07:42:48;19.05;;;3.85;;
9799;SDS011;4939;52.00085300;4.17406100;2024-03-22T07:45:14;14.48;;;3.78;;
9799;SDS011;4939;52.00085300;4.17406100;2024-03-22T07:47:40;15.18;;;3.95;;
9799;SDS011;4939;52.00085300;4.17406100;2024-03-22T07:50:08;22.30;;;4.10;;
9799;SDS011;4939;52.00085300;4.17406100;2024-03-22T07:52:35;16.55;;;3.92;;
9799;SDS011;4939;52.00085300;4.17406100;2024-03-22T07:55:01;15.98;;;4.13;;
9799;SDS011;4939;52.00085300;4.17406100;2024-03-22T07:57:28;14.27;;;4.05;;
9799;SDS011;4939;52.00085300;4.17406100;2024-03-22T07:59:56;16.00;;;4.05;;
9799;SDS011;4939;52.00085300;4.17406100;2024-03-22T08:02:22;14.85;;;4.50;;
9799;SDS011;4939;52.00085300;4.17406100;2024-03-22T08:04:49;17.75;;;4.22;;
9799;SDS011;4939;52.00085300;4.17406100;2024-03-22T08:07:16;16.38;;;3.47;;
9799;SDS011;4939;52.00085300;4.17406100;2024-03-22T08:09:42;18.05;;;4.15;;
9799;SDS011;4939;52.00085300;4.17406100;2024-03-22T08:12:08;15.85;;;4.13;;
9799;SDS011;4939;52.00085300;4.17406100;2024-03-22T08:14:35;17.20;;;4.18;;
9799;SDS011;4939;52.00085300;4.17406100;2024-03-22T08:17:01;19.40;;;4.82;;
9799;SDS011;4939;52.00085300;4.17406100;2024-03-22T08:19:28;18.98;;;4.40;;
9799;SDS011;4939;52.00085300;4.17406100;2024-03-22T08:21:54;17.20;;;4.45;;
9799;SDS011;4939;52.00085300;4.17406100;2024-03-22T08:24:20;15.60;;;3.75;;
9799;SDS011;4939;52.00085300;4.17406100;2024-03-22T08:26:46;17.40;;;3.90;;
9799;SDS011;4939;52.00085300;4.17406100;2024-03-22T08:29:13;15.65;;;4.47;;
9799;SDS011;4939;52.00085300;4.17406100;2024-03-22T08:31:40;22.40;;;5.07;;
9799;SDS011;4939;52.00085300;4.17406100;2024-03-22T08:34:07;19.52;;;4.50;;
9799;SDS011;4939;52.00085300;4.17406100;2024-03-22T08:36:33;21.77;;;5.47;;
9799;SDS011;4939;52.00085300;4.17406100;2024-03-22T08:39:00;23.17;;;5.50;;
9799;SDS011;4939;52.00085300;4.17406100;2024-03-22T08:41:26;14.27;;;4.75;;
9799;SDS011;4939;52.00085300;4.17406100;2024-03-22T08:43:52;16.05;;;4.53;;
9799;SDS011;4939;52.00085300;4.17406100;2024-03-22T08:46:18;18.23;;;4.80;;
9799;SDS011;4939;52.00085300;4.17406100;2024-03-22T08:48:46;19.65;;;4.93;;
9799;SDS011;4939;52.00085300;4.17406100;2024-03-22T08:51:13;22.98;;;5.07;;
9799;SDS011;4939;52.00085300;4.17406100;2024-03-22T08:53:39;24.50;;;4.57;;
9799;SDS011;4939;52.00085300;4.17406100;2024-03-22T08:56:05;21.05;;;5.10;;
9799;SDS011;4939;52.00085300;4.17406100;2024-03-22T08:58:31;15.15;;;3.50;;
9799;SDS011;4939;52.00085300;4.17406100;2024-03-22T09:00:57;16.75;;;3.95;;
9799;SDS011;4939;52.00085300;4.17406100;2024-03-22T09:03:23;24.75;;;5.40;;
9799;SDS011;4939;52.00085300;4.17406100;2024-03-22T09:05:53;15.40;;;4.10;;
9799;SDS011;4939;52.00085300;4.17406100;2024-03-22T09:08:22;11.32;;;3.50;;
9799;SDS011;4939;52.00085300;4.17406100;2024-03-22T09:10:48;18.73;;;5.43;;
9799;SDS011;4939;52.00085300;4.17406100;2024-03-22T09:13:14;17.63;;;4.63;;
9799;SDS011;4939;52.00085300;4.17406100;2024-03-22T09:15:40;13.18;;;3.90;;
9799;SDS011;4939;52.00085300;4.17406100;2024-03-22T09:18:06;19.90;;;5.40;;
9799;SDS011;4939;52.00085300;4.17406100;2024-03-22T09:20:32;15.20;;;4.07;;
9799;SDS011;4939;52.00085300;4.17406100;2024-03-22T09:22:58;16.25;;;5.60;;
9799;SDS011;4939;52.00085300;4.17406100;2024-03-22T09:25:24;17.85;;;4.32;;
9799;SDS011;4939;52.00085300;4.17406100;2024-03-22T09:27:50;15.18;;;5.22;;
9799;SDS011;4939;52.00085300;4.17406100;2024-03-22T09:30:16;17.25;;;5.35;;
9799;SDS011;4939;52.00085300;4.17406100;2024-03-22T09:32:43;14.95;;;5.05;;
9799;SDS011;4939;52.00085300;4.17406100;2024-03-22T09:35:09;17.50;;;5.10;;
9799;SDS011;4939;52.00085300;4.17406100;2024-03-22T09:37:36;18.30;;;4.75;;
9799;SDS011;4939;52.00085300;4.17406100;2024-03-22T09:40:03;14.25;;;4.03;;
9799;SDS011;4939;52.00085300;4.17406100;2024-03-22T09:42:32;20.83;;;5.45;;
9799;SDS011;4939;52.00085300;4.17406100;2024-03-22T09:44:58;19.77;;;5.32;;
9799;SDS011;4939;52.00085300;4.17406100;2024-03-22T09:47:26;20.42;;;6.63;;
9799;SDS011;4939;52.00085300;4.17406100;2024-03-22T09:49:53;20.27;;;6.25;;
9799;SDS011;4939;52.00085300;4.17406100;2024-03-22T09:52:21;19.13;;;6.15;;
9799;SDS011;4939;52.00085300;4.17406100;2024-03-22T09:54:47;19.58;;;5.97;;
9799;SDS011;4939;52.00085300;4.17406100;2024-03-22T09:57:14;17.63;;;6.70;;
9799;SDS011;4939;52.00085300;4.17406100;2024-03-22T09:59:46;19.13;;;5.30;;
9799;SDS011;4939;52.00085300;4.17406100;2024-03-22T10:02:12;15.63;;;6.03;;
9799;SDS011;4939;52.00085300;4.17406100;2024-03-22T10:04:40;21.67;;;6.88;;
9799;SDS011;4939;52.00085300;4.17406100;2024-03-22T10:07:06;15.82;;;5.88;;
9799;SDS011;4939;52.00085300;4.17406100;2024-03-22T10:09:34;16.35;;;6.60;;
9799;SDS011;4939;52.00085300;4.17406100;2024-03-22T10:12:00;27.85;;;7.47;;
9799;SDS011;4939;52.00085300;4.17406100;2024-03-22T10:14:26;21.67;;;6.40;;
9799;SDS011;4939;52.00085300;4.17406100;2024-03-22T10:16:53;27.30;;;7.93;;
9799;SDS011;4939;52.00085300;4.17406100;2024-03-22T10:19:22;19.60;;;7.30;;
9799;SDS011;4939;52.00085300;4.17406100;2024-03-22T10:22:04;16.77;;;6.32;;
9799;SDS011;4939;52.00085300;4.17406100;2024-03-22T10:24:33;14.32;;;5.40;;
9799;SDS011;4939;52.00085300;4.17406100;2024-03-22T10:26:59;19.35;;;6.85;;
9799;SDS011;4939;52.00085300;4.17406100;2024-03-22T10:29:25;17.80;;;6.80;;
9799;SDS011;4939;52.00085300;4.17406100;2024-03-22T10:31:52;18.38;;;6.40;;
9799;SDS011;4939;52.00085300;4.17406100;2024-03-22T10:34:24;20.23;;;7.30;;
9799;SDS011;4939;52.00085300;4.17406100;2024-03-22T10:36:50;17.52;;;5.97;;
9799;SDS011;4939;52.00085300;4.17406100;2024-03-22T10:39:17;18.48;;;6.35;;
9799;SDS011;4939;52.00085300;4.17406100;2024-03-22T10:41:47;19.55;;;7.18;;
9799;SDS011;4939;52.00085300;4.17406100;2024-03-22T10:44:13;21.73;;;8.63;;
9799;SDS011;4939;52.00085300;4.17406100;2024-03-22T10:46:43;21.92;;;7.13;;
9799;SDS011;4939;52.00085300;4.17406100;2024-03-22T10:49:17;35.78;;;8.75;;
9799;SDS011;4939;52.00085300;4.17406100;2024-03-22T10:51:46;19.70;;;6.85;;
9799;SDS011;4939;52.00085300;4.17406100;2024-03-22T10:54:19;23.05;;;7.60;;
9799;SDS011;4939;52.00085300;4.17406100;2024-03-22T10:56:51;20.95;;;7.25;;
9799;SDS011;4939;52.00085300;4.17406100;2024-03-22T10:59:24;19.05;;;6.85;;
9799;SDS011;4939;52.00085300;4.17406100;2024-03-22T11:01:50;24.33;;;7.40;;
9799;SDS011;4939;52.00085300;4.17406100;2024-03-22T11:04:22;22.20;;;7.00;;
9799;SDS011;4939;52.00085300;4.17406100;2024-03-22T11:06:51;22.02;;;7.53;;
9799;SDS011;4939;52.00085300;4.17406100;2024-03-22T11:09:23;18.33;;;6.07;;
9799;SDS011;4939;52.00085300;4.17406100;2024-03-22T11:11:54;20.58;;;5.90;;
9799;SDS011;4939;52.00085300;4.17406100;2024-03-22T11:14:22;20.45;;;6.90;;
9799;SDS011;4939;52.00085300;4.17406100;2024-03-22T11:16:50;21.58;;;7.03;;
9799;SDS011;4939;52.00085300;4.17406100;2024-03-22T11:19:17;16.15;;;5.00;;
9799;SDS011;4939;52.00085300;4.17406100;2024-03-22T11:21:43;18.38;;;6.40;;
9799;SDS011;4939;52.00085300;4.17406100;2024-03-22T11:24:09;14.75;;;6.63;;
9799;SDS011;4939;52.00085300;4.17406100;2024-03-22T11:26:36;20.15;;;6.55;;
9799;SDS011;4939;52.00085300;4.17406100;2024-03-22T11:29:04;21.25;;;6.53;;
9799;SDS011;4939;52.00085300;4.17406100;2024-03-22T11:31:30;20.65;;;6.22;;
9799;SDS011;4939;52.00085300;4.17406100;2024-03-22T11:33:56;24.10;;;7.78;;
9799;SDS011;4939;52.00085300;4.17406100;2024-03-22T11:36:23;22.25;;;7.93;;
9799;SDS011;4939;52.00085300;4.17406100;2024-03-22T11:38:49;22.67;;;7.78;;
9799;SDS011;4939;52.00085300;4.17406100;2024-03-22T11:41:19;26.20;;;7.85;;
9799;SDS011;4939;52.00085300;4.17406100;2024-03-22T11:43:52;23.23;;;7.20;;
9799;SDS011;4939;52.00085300;4.17406100;2024-03-22T11:46:18;20.63;;;7.05;;
9799;SDS011;4939;52.00085300;4.17406100;2024-03-22T11:48:50;22.35;;;7.78;;
9799;SDS011;4939;52.00085300;4.17406100;2024-03-22T11:51:17;26.67;;;8.30;;
9799;SDS011;4939;52.00085300;4.17406100;2024-03-22T11:53:53;28.83;;;7.55;;
9799;SDS011;4939;52.00085300;4.17406100;2024-03-22T11:56:21;22.20;;;7.97;;
9799;SDS011;4939;52.00085300;4.17406100;2024-03-22T11:58:48;25.45;;;8.20;;
9799;SDS011;4939;52.00085300;4.17406100;2024-03-22T12:01:17;20.77;;;8.02;;
9799;SDS011;4939;52.00085300;4.17406100;2024-03-22T12:03:46;26.75;;;8.80;;
9799;SDS011;4939;52.00085300;4.17406100;2024-03-22T12:06:12;25.13;;;8.85;;
9799;SDS011;4939;52.00085300;4.17406100;2024-03-22T12:08:39;17.83;;;6.15;;
9799;SDS011;4939;52.00085300;4.17406100;2024-03-22T12:11:09;26.60;;;8.18;;
9799;SDS011;4939;52.00085300;4.17406100;2024-03-22T12:13:35;17.48;;;7.05;;
9799;SDS011;4939;52.00085300;4.17406100;2024-03-22T12:16:03;21.90;;;8.23;;
9799;SDS011;4939;52.00085300;4.17406100;2024-03-22T12:18:30;25.70;;;8.75;;
9799;SDS011;4939;52.00085300;4.17406100;2024-03-22T12:20:56;28.65;;;9.30;;
9799;SDS011;4939;52.00085300;4.17406100;2024-03-22T12:23:22;18.73;;;7.47;;
9799;SDS011;4939;52.00085300;4.17406100;2024-03-22T12:25:49;24.60;;;8.07;;
9799;SDS011;4939;52.00085300;4.17406100;2024-03-22T12:28:16;25.92;;;8.20;;
9799;SDS011;4939;52.00085300;4.17406100;2024-03-22T12:30:42;26.52;;;8.55;;
9799;SDS011;4939;52.00085300;4.17406100;2024-03-22T12:33:09;23.75;;;8.30;;
9799;SDS011;4939;52.00085300;4.17406100;2024-03-22T12:35:36;25.48;;;7.78;;
9799;SDS011;4939;52.00085300;4.17406100;2024-03-22T12:38:02;21.33;;;7.13;;
9799;SDS011;4939;52.00085300;4.17406100;2024-03-22T12:40:29;25.92;;;8.25;;
9799;SDS011;4939;52.00085300;4.17406100;2024-03-22T12:42:57;20.02;;;7.07;;
9799;SDS011;4939;52.00085300;4.17406100;2024-03-22T12:45:23;22.73;;;8.02;;
9799;SDS011;4939;52.00085300;4.17406100;2024-03-22T12:47:49;21.42;;;7.55;;
9799;SDS011;4939;52.00085300;4.17406100;2024-03-22T12:50:15;25.92;;;8.32;;
9799;SDS011;4939;52.00085300;4.17406100;2024-03-22T12:52:42;27.73;;;8.27;;
9799;SDS011;4939;52.00085300;4.17406100;2024-03-22T12:55:09;21.42;;;6.93;;
9799;SDS011;4939;52.00085300;4.17406100;2024-03-22T12:57:35;21.75;;;7.20;;